Time;durP1;ratioP1;P1;durP2;ratioP2;P2;SDS_P1;SDS_P2;PMS_P1;PMS_P2;Temp;Humidity;BMP_temperature;BMP_pressure;BME280_temperature;BME280_humidity;BME280_pressure;Samples;Min_cycle;Max_cycle;Signal;HPM_P1;HPM_P2
2024/04/04 00:02:56;;;;;;;6.88;2.05;;;;;;;15.72;55.31;101156.72;10127509;29;20052;-82
2024/04/04 00:08:20;;;;;;;6.97;2.30;;;;;;;15.73;55.35;101143.44;10160107;29;20048;-80
2024/04/04 00:14:05;;;;;;;8.20;1.90;;;;;;;15.74;55.19;101149.66;10146043;29;20067;-81
2024/04/04 00:19:29;;;;;;;4.65;1.63;;;;;;;15.74;55.39;101145.22;10143301;29;20298;-81
2024/04/04 00:24:53;;;;;;;7.03;1.80;;;;;;;15.79;55.21;101137.22;10133347;29;20075;-81
2024/04/04 00:30:17;;;;;;;14.43;2.00;;;;;;;15.73;56.09;101134.56;10147305;29;20079;-80
2024/04/04 00:35:41;;;;;;;8.20;1.77;;;;;;;15.61;56.61;101140.78;10151158;29;20056;-82
2024/04/04 00:41:05;;;;;;;3.47;1.70;;;;;;;15.44;58.19;101146.00;10134287;29;20151;-80
2024/04/04 00:46:28;;;;;;;3.35;1.50;;;;;;;15.20;59.70;101131.78;10137532;29;20052;-81
2024/04/04 00:51:51;;;;;;;7.20;2.00;;;;;;;15.28;59.01;101140.66;10156574;29;20052;-81
2024/04/04 00:57:15;;;;;;;6.40;1.55;;;;;;;15.36;58.62;101136.25;10171898;29;20087;-80
2024/04/04 01:02:38;;;;;;;13.82;2.67;;;;;;;15.32;60.03;101131.81;10133771;29;20509;-80
2024/04/04 01:08:01;;;;;;;5.72;1.98;;;;;;;15.34;60.81;101128.28;10145440;29;20056;-82
2024/04/04 01:13:25;;;;;;;10.93;2.58;;;;;;;15.29;61.58;101124.72;10122233;29;20060;-82
2024/04/04 01:18:47;;;;;;;6.97;2.13;;;;;;;15.28;61.15;101116.72;10119346;29;20057;-80
2024/04/04 01:24:12;;;;;;;8.10;2.05;;;;;;;15.17;62.11;101119.34;10168195;29;20052;-81
2024/04/04 01:29:34;;;;;;;5.60;2.08;;;;;;;15.00;64.64;101114.00;10130819;29;20511;-81
2024/04/04 01:34:56;;;;;;;7.53;2.03;;;;;;;15.05;65.26;101109.56;10132300;29;20056;-81
2024/04/04 01:40:20;;;;;;;7.05;2.25;;;;;;;14.91;67.67;101113.06;10146424;29;20143;-81
2024/04/04 01:45:43;;;;;;;8.45;2.00;;;;;;;14.83;70.57;101105.09;10147301;29;20100;-81
2024/04/04 01:51:06;;;;;;;5.15;2.25;;;;;;;14.88;69.31;101108.63;10158119;29;20112;-82
2024/04/04 01:56:30;;;;;;;9.23;2.60;;;;;;;14.93;68.99;101095.34;10121050;29;20056;-81
2024/04/04 02:01:53;;;;;;;8.13;2.13;;;;;;;14.94;70.00;101113.09;10136221;29;20557;-81
2024/04/04 02:07:15;;;;;;;10.07;2.47;;;;;;;14.93;70.50;101100.66;10134146;29;20127;-81
2024/04/04 02:12:41;;;;;;;8.18;2.05;;;;;;;14.96;72.32;101103.34;10131446;29;20048;-81
2024/04/04 02:18:04;;;;;;;7.22;2.22;;;;;;;14.92;72.76;101086.50;10144215;29;20521;-81
2024/04/04 02:23:27;;;;;;;6.25;2.20;;;;;;;14.87;75.56;101098.00;10111038;29;20063;-81
2024/04/04 02:28:51;;;;;;;8.30;2.60;;;;;;;14.82;78.12;101100.66;10118756;29;20054;-82
2024/04/04 02:34:14;;;;;;;8.23;2.30;;;;;;;14.82;79.60;101105.06;10119144;29;20094;-81
2024/04/04 02:39:37;;;;;;;8.85;2.10;;;;;;;14.82;80.80;101108.63;10141097;29;20112;-82
2024/04/04 02:45:02;;;;;;;8.00;2.03;;;;;;;14.84;82.61;101104.19;10122963;29;20726;-81
2024/04/04 02:50:26;;;;;;;10.13;2.38;;;;;;;14.71;83.76;101105.91;10109345;29;20156;-81
2024/04/04 02:55:54;;;;;;;6.40;2.40;;;;;;;14.71;83.97;101111.22;10119908;29;20849;-81
2024/04/04 03:01:19;;;;;;;8.20;2.30;;;;;;;14.55;87.98;101116.47;10134229;29;20060;-81
2024/04/04 03:06:42;;;;;;;14.15;2.88;;;;;;;14.50;93.76;101119.09;10148218;29;20150;-82
2024/04/04 03:12:05;;;;;;;10.68;3.22;;;;;;;14.44;98.78;101119.03;10135850;29;20070;-82
2024/04/04 03:17:30;;;;;;;7.93;2.33;;;;;;;14.23;100.00;101117.16;10143216;29;20056;-82
2024/04/04 03:22:52;;;;;;;14.30;7.25;;;;;;;14.25;100.00;101120.69;10128586;29;20129;-82
2024/04/04 03:28:16;;;;;;;9.95;2.80;;;;;;;14.23;100.00;101124.22;10132831;29;20088;-81
2024/04/04 03:33:40;;;;;;;12.57;3.03;;;;;;;14.28;100.00;101117.16;10131845;29;20078;-84
2024/04/04 03:39:03;;;;;;;10.68;2.85;;;;;;;14.23;100.00;101127.78;10135527;29;20047;-82
2024/04/04 03:44:27;;;;;;;10.73;2.72;;;;;;;14.26;100.00;101124.22;10168319;29;20056;-88
2024/04/04 03:49:53;;;;;;;10.57;2.90;;;;;;;14.30;100.00;101136.66;10142864;29;20056;-89
2024/04/04 03:55:15;;;;;;;13.05;3.42;;;;;;;14.25;100.00;101138.38;10131786;29;20063;-84
2024/04/04 04:00:38;;;;;;;12.30;2.78;;;;;;;14.26;100.00;101133.06;10124771;29;20052;-85
2024/04/04 04:06:02;;;;;;;9.18;2.60;;;;;;;14.24;100.00;101149.91;10105585;29;20064;-84
2024/04/04 04:11:24;;;;;;;10.70;2.92;;;;;;;14.10;100.00;101156.88;10113334;29;20061;-85
2024/04/04 04:16:47;;;;;;;7.50;2.50;;;;;;;14.11;100.00;101164.81;10135165;29;20055;-88
2024/04/04 04:22:11;;;;;;;8.30;2.72;;;;;;;14.15;100.00;101160.44;10152185;29;20048;-85
2024/04/04 04:27:33;;;;;;;14.07;2.95;;;;;;;14.22;100.00;101164.94;10104471;29;20501;-85
2024/04/04 04:32:56;;;;;;;10.32;2.80;;;;;;;14.35;100.00;101178.31;10113512;29;20052;-84
2024/04/04 04:38:20;;;;;;;12.85;3.28;;;;;;;14.50;100.00;101171.34;10139864;29;20116;-86
2024/04/04 04:43:44;;;;;;;6.35;2.40;;;;;;;14.70;100.00;101183.00;10103690;29;20053;-88
2024/04/04 04:49:07;;;;;;;8.02;2.50;;;;;;;14.84;100.00;101180.38;10154504;29;20056;-84
2024/04/04 04:54:31;;;;;;;9.93;3.35;;;;;;;15.22;100.00;101185.88;10142204;29;20108;-83
2024/04/04 04:59:53;;;;;;;12.02;3.60;;;;;;;15.50;100.00;101180.63;10144441;29;20222;-85
2024/04/04 05:05:17;;;;;;;9.77;3.10;;;;;;;15.87;100.00;101188.72;10174913;29;20056;-85
2024/04/04 05:10:41;;;;;;;10.90;3.60;;;;;;;16.48;100.00;101186.88;10161562;29;20063;-86
2024/04/04 05:16:04;;;;;;;17.98;5.53;;;;;;;16.49;100.00;101180.66;10161890;29;20052;-84
2024/04/04 05:21:27;;;;;;;12.77;5.32;;;;;;;16.40;100.00;101183.38;10174590;29;20059;-86
2024/04/04 05:26:51;;;;;;;9.82;4.80;;;;;;;16.90;100.00;101177.94;10161089;29;20060;-86
2024/04/04 05:32:14;;;;;;;13.13;4.90;;;;;;;17.67;100.00;101175.75;10148140;29;20052;-85
2024/04/04 05:37:38;;;;;;;15.88;5.47;;;;;;;18.46;100.00;101172.41;10161270;29;20067;-85
2024/04/04 05:43:02;;;;;;;13.20;5.20;;;;;;;19.26;100.00;101178.66;10148054;29;20116;-86
2024/04/04 05:48:25;;;;;;;11.32;5.50;;;;;;;19.98;100.00;101179.38;10173468;29;20056;-86
2024/04/04 05:53:48;;;;;;;12.23;5.00;;;;;;;20.64;100.00;101190.75;10160090;29;20091;-87
2024/04/04 05:59:12;;;;;;;12.15;4.05;;;;;;;21.31;100.00;101181.38;10147529;29;20052;-87
2024/04/04 06:04:35;;;;;;;9.30;2.55;;;;;;;22.06;100.00;101191.28;10147342;29;20051;-87
2024/04/04 06:09:57;;;;;;;12.05;2.90;;;;;;;22.71;100.00;101188.66;10172641;29;20087;-86
2024/04/04 06:15:21;;;;;;;9.57;3.00;;;;;;;23.32;100.00;101192.31;10147000;29;20059;-86
2024/04/04 06:20:44;;;;;;;9.32;3.53;;;;;;;23.87;100.00;101196.03;10172503;29;20108;-87
2024/04/04 06:26:07;;;;;;;11.68;4.50;;;;;;;24.33;96.79;101204.41;10159663;29;20060;-88
2024/04/04 06:31:31;;;;;;;11.90;3.72;;;;;;;24.68;92.13;101207.72;10158829;29;20155;-88
2024/04/04 06:36:55;;;;;;;9.07;2.70;;;;;;;25.16;86.70;101216.75;10145908;29;20123;-88
2024/04/04 06:42:18;;;;;;;12.73;3.00;;;;;;;25.62;81.59;101209.59;10158500;29;20056;-88
2024/04/04 06:47:43;;;;;;;11.38;4.03;;;;;;;26.10;74.65;101210.34;10158846;29;20147;-89
2024/04/04 06:53:06;;;;;;;16.63;3.88;;;;;;;26.33;67.05;101208.50;10145012;29;20067;-87
2024/04/04 06:58:29;;;;;;;12.60;5.00;;;;;;;26.46;62.87;101215.16;10144365;29;20052;-88
2024/04/04 07:03:54;;;;;;;13.70;5.60;;;;;;;26.65;56.94;101215.28;10144712;29;20142;-88
2024/04/04 07:09:16;;;;;;;10.25;4.93;;;;;;;26.91;53.75;101213.16;10170540;29;20064;-90
2024/04/04 07:14:41;;;;;;;13.23;6.25;;;;;;;27.26;50.31;101216.09;10144827;29;20056;-88
2024/04/04 07:20:07;;;;;;;13.02;4.03;;;;;;;27.73;49.06;101211.19;10144071;29;20147;-88
2024/04/04 07:25:30;;;;;;;13.20;3.58;;;;;;;27.79;47.90;101208.19;10169730;29;20115;-89
2024/04/04 07:30:52;;;;;;;8.27;2.63;;;;;;;27.71;46.68;101213.97;10156497;29;20323;-87
2024/04/04 07:36:16;;;;;;;10.00;2.70;;;;;;;27.86;45.31;101211.47;10170156;29;20516;-88
2024/04/04 07:41:39;;;;;;;7.90;2.20;;;;;;;27.99;44.57;101208.09;10156684;29;20520;-88
2024/04/04 07:47:01;;;;;;;11.90;2.28;;;;;;;27.82;43.00;101218.91;10143065;29;20052;-89
2024/04/04 07:52:25;;;;;;;7.40;1.80;;;;;;;27.77;41.57;101219.09;10156889;29;20059;-89
2024/04/04 07:57:48;;;;;;;10.23;2.47;;;;;;;28.05;40.49;101221.34;10142922;29;20067;-88
2024/04/04 08:03:10;;;;;;;7.40;3.58;;;;;;;28.53;39.31;101220.75;10156543;29;20059;-88
2024/04/04 08:08:34;;;;;;;7.30;2.00;;;;;;;28.80;37.82;101220.31;10143068;29;20052;-88
2024/04/04 08:13:57;;;;;;;5.38;1.80;;;;;;;28.86;35.94;101225.41;10155943;29;20112;-89
2024/04/04 08:19:19;;;;;;;9.23;3.00;;;;;;;29.01;34.55;101213.72;10142916;29;20060;-89
2024/04/04 08:24:43;;;;;;;5.43;1.88;;;;;;;29.25;33.52;101223.25;10155491;29;20391;-89
2024/04/04 08:30:08;;;;;;;7.25;2.03;;;;;;;29.38;33.08;101219.91;10155418;29;20063;-89
2024/04/04 08:35:30;;;;;;;6.20;1.55;;;;;;;29.70;31.65;101210.81;10159098;29;20052;-88
2024/04/04 08:40:58;;;;;;;4.35;1.70;;;;;;;29.81;31.08;101205.63;10163978;29;20056;-88
2024/04/04 08:46:20;;;;;;;8.80;1.75;;;;;;;29.84;30.48;101205.47;10161934;29;20066;-88
2024/04/04 08:51:43;;;;;;;3.53;1.42;;;;;;;29.61;30.35;101203.16;10162317;29;20094;-87
2024/04/04 08:57:09;;;;;;;3.88;1.80;;;;;;;29.61;30.09;101203.16;10175674;29;20501;-93
2024/04/04 09:02:31;;;;;;;4.15;1.30;;;;;;;29.71;29.39;101210.72;10149746;29;20112;-91
2024/04/04 09:07:54;;;;;;;3.42;0.93;;;;;;;29.88;28.80;101208.88;10162630;29;20052;-89
2024/04/04 09:13:20;;;;;;;4.07;1.00;;;;;;;29.90;28.80;101215.13;10175536;29;20516;-93
2024/04/04 09:18:42;;;;;;;5.13;1.30;;;;;;;30.09;28.57;101211.28;10149104;29;20056;-90
2024/04/04 09:24:08;;;;;;;4.38;1.15;;;;;;;30.40;27.77;101212.16;10142782;29;20123;-93
2024/04/04 09:29:35;;;;;;;4.72;1.10;;;;;;;30.37;27.71;101198.75;10154547;29;20628;-90
2024/04/04 09:34:58;;;;;;;3.42;1.15;;;;;;;30.55;27.91;101200.38;10214573;29;20051;-87
2024/04/04 09:40:29;;;;;;;6.15;1.30;;;;;;;30.80;27.87;101194.31;10187436;29;20130;-89
2024/04/04 09:45:57;;;;;;;5.10;1.45;;;;;;;31.05;27.68;101197.28;10185849;29;20064;-90
2024/04/04 09:51:21;;;;;;;3.50;0.88;;;;;;;30.63;28.13;101206.25;10149535;29;20056;-92
2024/04/04 09:56:43;;;;;;;5.88;1.67;;;;;;;30.69;28.24;101210.44;10174481;29;20041;-92
2024/04/04 10:02:09;;;;;;;6.00;1.00;;;;;;;30.77;28.69;101210.88;10135845;29;20048;-88
2024/04/04 10:07:33;;;;;;;6.00;1.15;;;;;;;30.90;28.54;101203.69;10173726;29;20104;-90
2024/04/04 10:12:57;;;;;;;4.93;1.30;;;;;;;30.95;27.77;101201.53;10147038;29;20060;-89
2024/04/04 10:18:22;;;;;;;4.43;1.40;;;;;;;31.00;27.73;101202.13;10134343;29;20135;-90
2024/04/04 10:23:44;;;;;;;5.05;1.15;;;;;;;30.92;28.00;101207.19;10148332;29;20048;-92
2024/04/04 10:29:16;;;;;;;3.55;1.00;;;;;;;31.06;27.14;101204.50;10137052;29;20112;-90
2024/04/04 10:34:40;;;;;;;3.33;0.90;;;;;;;30.88;28.06;101206.50;10160312;29;20048;-92
2024/04/04 10:40:03;;;;;;;8.25;1.80;;;;;;;30.93;28.36;101197.16;10148193;29;20143;-92
2024/04/04 10:45:28;;;;;;;5.30;1.75;;;;;;;30.79;28.80;101196.16;10164850;29;20509;-89
2024/04/04 10:50:53;;;;;;;3.50;1.10;;;;;;;30.53;29.28;101185.09;10134615;29;20067;-95
2024/04/04 10:56:17;;;;;;;5.35;1.30;;;;;;;30.20;29.65;101187.94;10210373;29;20055;-92
2024/04/04 11:01:40;;;;;;;6.32;1.17;;;;;;;29.87;30.45;101182.59;10212481;29;20063;-91
2024/04/04 11:07:05;;;;;;;3.85;0.98;;;;;;;29.33;31.72;101171.16;10198972;29;20056;-94
2024/04/04 11:12:33;;;;;;;6.60;1.10;;;;;;;28.99;31.91;101172.13;10187094;29;20421;-94
2024/04/04 11:17:58;;;;;;;9.00;1.75;;;;;;;28.42;32.83;101170.66;10109621;29;20060;-91
2024/04/04 11:23:22;;;;;;;10.35;1.67;;;;;;;28.05;33.26;101180.63;10165101;29;20095;-89
2024/04/04 11:28:45;;;;;;;7.20;1.60;;;;;;;27.99;33.40;101180.06;10170237;29;20141;-94
2024/04/04 11:34:08;;;;;;;5.88;1.33;;;;;;;27.82;33.55;101180.00;10208278;29;20048;-88
2024/04/04 11:39:32;;;;;;;8.57;1.58;;;;;;;27.73;34.04;101176.78;10197902;29;20099;-91
2024/04/04 11:44:55;;;;;;;6.38;2.10;;;;;;;27.70;35.20;101178.75;10177770;29;20060;-93
2024/04/04 11:50:18;;;;;;;8.57;1.27;;;;;;;27.51;35.91;101176.03;10172606;29;20062;-92
2024/04/04 11:55:44;;;;;;;5.53;1.50;;;;;;;27.40;36.59;101163.94;10158110;29;20056;-87
2024/04/04 12:01:07;;;;;;;9.05;1.48;;;;;;;27.23;36.05;101162.03;10171763;29;20091;-93
2024/04/04 12:06:31;;;;;;;5.97;1.88;;;;;;;27.02;36.37;101153.06;10158349;29;20075;-92
2024/04/04 12:11:56;;;;;;;5.07;1.42;;;;;;;26.88;36.44;101152.78;10174896;29;20055;-93
2024/04/04 12:17:20;;;;;;;7.05;1.90;;;;;;;26.68;37.15;101153.69;10172745;29;20119;-93
2024/04/04 12:22:46;;;;;;;6.63;1.90;;;;;;;26.46;37.95;101150.16;10159841;29;20079;-94
2024/04/04 12:28:14;;;;;;;11.30;5.43;;;;;;;26.49;37.75;101142.78;10150496;29;20068;-91
2024/04/04 12:33:37;;;;;;;9.77;2.43;;;;;;;26.44;37.84;101135.81;10142710;29;20059;-92
2024/04/04 12:39:02;;;;;;;8.45;1.30;;;;;;;26.30;38.21;101130.13;10133222;29;20116;-92
2024/04/04 12:44:27;;;;;;;5.10;1.23;;;;;;;26.04;39.80;101120.41;10134661;29;20083;-91
2024/04/04 12:49:50;;;;;;;10.70;1.98;;;;;;;25.92;40.81;101116.38;10170985;29;20131;-92
2024/04/04 12:55:12;;;;;;;10.52;3.90;;;;;;;25.82;40.91;101112.28;10184599;29;20104;-91
2024/04/04 13:00:36;;;;;;;8.85;1.70;;;;;;;25.80;40.87;101112.34;10171227;29;20060;-93
2024/04/04 13:05:59;;;;;;;8.50;2.55;;;;;;;25.69;41.54;101103.81;10158501;29;20147;-90
2024/04/04 13:11:22;;;;;;;8.45;1.40;;;;;;;25.70;41.39;101110.09;10170857;29;20136;-89
2024/04/04 13:16:46;;;;;;;12.75;2.55;;;;;;;25.59;42.31;101109.66;10157876;29;20072;-89
2024/04/04 13:22:09;;;;;;;8.20;1.42;;;;;;;25.62;42.22;101102.31;10152983;29;20052;-92
2024/04/04 13:27:31;;;;;;;6.28;1.50;;;;;;;25.56;42.80;101098.94;10165005;29;20071;-91
2024/04/04 13:32:56;;;;;;;6.75;1.60;;;;;;;25.47;43.46;101097.47;10151515;29;20139;-95
2024/04/04 13:38:20;;;;;;;9.18;1.70;;;;;;;25.31;45.95;101107.16;10153686;29;20139;-95
2024/04/04 13:43:43;;;;;;;8.60;2.20;;;;;;;25.29;47.64;101099.09;10152519;29;20055;-90
2024/04/04 13:49:07;;;;;;;11.68;3.58;;;;;;;25.22;49.80;101104.81;10126486;29;20056;-92
2024/04/04 13:54:33;;;;;;;14.40;1.88;;;;;;;25.15;49.48;101109.56;10121419;29;20072;-89
2024/04/04 13:59:56;;;;;;;7.90;1.92;;;;;;;25.22;49.48;101102.09;10148821;29;20394;-89
2024/04/04 14:05:20;;;;;;;10.10;2.10;;;;;;;25.22;48.66;101111.09;10161705;29;20079;-91
2024/04/04 14:10:43;;;;;;;8.05;1.92;;;;;;;25.16;48.65;101103.22;10174617;29;20509;-90
2024/04/04 14:16:10;;;;;;;11.80;2.10;;;;;;;25.11;49.42;101101.66;10185939;29;20059;-90
2024/04/04 14:21:34;;;;;;;14.40;1.77;;;;;;;25.01;50.52;101112.81;10185594;29;20114;-89
2024/04/04 14:26:57;;;;;;;15.68;2.33;;;;;;;24.94;51.06;101116.69;10179758;29;20055;-93
2024/04/04 14:32:20;;;;;;;11.65;2.00;;;;;;;24.99;51.75;101128.22;10185668;29;20066;-90
2024/04/04 14:37:50;;;;;;;9.43;2.70;;;;;;;25.09;52.85;101130.53;10213634;29;20083;-88
2024/04/04 14:43:13;;;;;;;12.27;2.10;;;;;;;25.11;52.89;101136.78;10184398;29;20066;-89
2024/04/04 14:48:35;;;;;;;9.77;1.63;;;;;;;25.14;51.95;101131.28;10177257;29;20099;-87
2024/04/04 14:53:59;;;;;;;8.20;2.00;;;;;;;25.18;52.51;101122.97;10151762;29;20066;-92
2024/04/04 14:59:22;;;;;;;11.20;2.10;;;;;;;25.09;52.90;101130.53;10173145;29;20100;-89
2024/04/04 15:04:44;;;;;;;9.80;1.63;;;;;;;24.71;55.36;101143.66;10121373;29;20568;-92
2024/04/04 15:10:11;;;;;;;6.28;1.63;;;;;;;24.44;55.69;101145.53;10122842;29;20064;-88
2024/04/04 15:15:33;;;;;;;9.25;1.90;;;;;;;24.11;55.40;101158.34;10172312;29;20560;-86
2024/04/04 15:20:56;;;;;;;15.02;2.67;;;;;;;23.95;55.54;101150.81;10146186;29;20144;-87
2024/04/04 15:26:20;;;;;;;11.43;2.15;;;;;;;23.75;56.47;101160.47;10159444;29;20095;-87
2024/04/04 15:31:43;;;;;;;8.07;3.08;;;;;;;23.52;56.76;101159.41;10158131;29;20060;-87
2024/04/04 15:37:06;;;;;;;9.75;1.95;;;;;;;23.37;55.76;101166.09;10133653;29;20071;-92
2024/04/04 15:48:09;;;;;;;8.38;1.95;;;;;;;22.96;55.01;101184.41;10166666;29;20091;-90
2024/04/04 15:53:33;;;;;;;6.40;1.90;;;;;;;22.87;55.24;101187.34;10118296;29;20064;-91
2024/04/04 15:58:59;;;;;;;6.30;2.15;;;;;;;22.64;56.90;101184.41;10189827;29;20518;-90
2024/04/04 16:04:21;;;;;;;8.45;1.83;;;;;;;22.46;58.85;101193.81;10196923;29;20134;-91
2024/04/04 16:09:46;;;;;;;11.40;2.40;;;;;;;22.30;60.20;101205.94;10170393;29;20404;-88
2024/04/04 16:15:11;;;;;;;11.90;1.80;;;;;;;22.26;61.12;101205.09;10164889;29;20582;-92
2024/04/04 16:20:34;;;;;;;11.40;2.30;;;;;;;22.13;63.48;101200.06;10132570;29;20502;-87
2024/04/04 16:26:00;;;;;;;7.70;2.13;;;;;;;21.98;64.12;101206.75;10142953;29;20533;-85
2024/04/04 16:31:24;;;;;;;9.48;2.80;;;;;;;21.83;66.09;101212.44;10143908;29;20056;-87
2024/04/04 16:36:49;;;;;;;10.30;1.80;;;;;;;21.69;65.91;101217.25;10152388;29;20505;-90
2024/04/04 16:42:11;;;;;;;7.93;2.03;;;;;;;21.52;67.45;101206.00;10148286;29;20063;-85
2024/04/04 16:47:36;;;;;;;12.00;2.95;;;;;;;21.33;68.33;101213.59;10134220;29;20112;-85
2024/04/04 16:53:03;;;;;;;11.30;2.40;;;;;;;21.17;68.67;101215.69;10136980;29;20060;-89
2024/04/04 16:58:25;;;;;;;8.50;2.67;;;;;;;20.96;69.78;101210.72;10163879;29;20144;-87
2024/04/04 17:03:49;;;;;;;11.57;3.40;;;;;;;20.81;70.11;101217.25;10139366;29;20169;-86
2024/04/04 17:09:14;;;;;;;9.00;2.70;;;;;;;20.65;70.68;101238.16;10177373;29;20112;-88
2024/04/04 17:14:37;;;;;;;23.67;5.97;;;;;;;20.56;71.32;101232.94;10201786;29;20052;-87
2024/04/04 17:20:01;;;;;;;12.32;3.30;;;;;;;20.32;74.18;101233.34;10172682;29;20115;-85
2024/04/04 17:25:24;;;;;;;17.48;4.10;;;;;;;20.25;76.21;101253.13;10147686;29;20050;-87
2024/04/04 17:30:48;;;;;;;12.02;5.05;;;;;;;20.26;74.68;101254.91;10177814;29;20067;-90
2024/04/04 17:36:12;;;;;;;11.38;2.92;;;;;;;20.19;73.88;101262.16;10129608;29;20059;-89
2024/04/04 17:41:35;;;;;;;11.95;3.47;;;;;;;20.11;74.54;101266.75;10215797;29;20056;-88
2024/04/04 17:46:58;;;;;;;8.73;2.80;;;;;;;20.02;76.99;101260.66;10165074;29;20129;-89
2024/04/04 17:52:22;;;;;;;7.72;2.22;;;;;;;19.91;76.90;101279.56;10160764;29;20063;-89
2024/04/04 17:57:44;;;;;;;10.55;2.78;;;;;;;19.67;77.02;101291.50;10201136;29;20060;-88
2024/04/04 18:03:07;;;;;;;9.70;2.28;;;;;;;19.34;79.81;101286.53;10177064;29;20172;-88
2024/04/04 18:08:32;;;;;;;8.05;2.83;;;;;;;19.32;82.23;101291.91;10179935;29;20059;-88
2024/04/04 18:13:55;;;;;;;12.85;3.10;;;;;;;19.41;82.42;101298.94;10176955;29;20062;-84
2024/04/04 18:19:18;;;;;;;10.57;2.83;;;;;;;19.50;80.09;101307.78;10154578;29;20493;-93
2024/04/04 18:24:42;;;;;;;8.55;2.38;;;;;;;19.45;81.63;101314.94;10147391;29;20064;-88
2024/04/04 18:30:06;;;;;;;7.43;2.80;;;;;;;19.27;81.47;101336.59;10179273;29;20453;-88
2024/04/04 18:35:31;;;;;;;12.82;2.65;;;;;;;19.16;83.60;101342.97;10152344;29;20067;-85
2024/04/04 18:40:55;;;;;;;11.68;4.95;;;;;;;19.09;84.90;101344.81;10147240;29;20052;-85
2024/04/04 18:46:21;;;;;;;9.45;2.50;;;;;;;19.01;86.10;101341.31;10174301;29;20056;-86
2024/04/04 18:51:49;;;;;;;10.70;3.67;;;;;;;19.00;88.22;101351.16;10173077;29;20060;-92
2024/04/04 18:57:19;;;;;;;15.18;3.17;;;;;;;18.90;88.46;101353.94;10172693;29;20048;-92
2024/04/04 19:02:50;;;;;;;10.45;2.83;;;;;;;18.83;90.33;101355.78;10147055;29;20060;-92
2024/04/04 19:08:13;;;;;;;14.32;2.88;;;;;;;18.80;90.87;101352.22;10147646;29;20540;-89
2024/04/04 19:13:37;;;;;;;10.30;1.83;;;;;;;18.75;90.95;101368.31;10157574;29;20062;-86
2024/04/04 19:19:00;;;;;;;17.10;5.90;;;;;;;18.77;90.67;101355.84;10199623;29;20086;-87
2024/04/04 19:24:22;;;;;;;9.95;2.33;;;;;;;18.78;89.52;101360.25;10198300;29;20064;-88
2024/04/04 19:29:47;;;;;;;9.65;2.30;;;;;;;18.75;89.47;101362.06;10162991;29;20502;-83
2024/04/04 19:35:09;;;;;;;10.73;2.50;;;;;;;18.55;92.73;101362.19;10119775;29;20052;-87
2024/04/04 19:40:32;;;;;;;9.70;1.98;;;;;;;18.46;97.08;101363.16;10158299;29;20071;-86
2024/04/04 19:46:03;;;;;;;10.23;2.80;;;;;;;18.37;97.20;101357.88;10156650;29;20052;-88
2024/04/04 19:51:26;;;;;;;25.73;4.80;;;;;;;18.26;99.01;101362.38;10171173;29;20071;-90
2024/04/04 19:56:49;;;;;;;11.82;3.00;;;;;;;18.22;100.00;101371.34;10143446;29;20048;-89
2024/04/04 20:02:17;;;;;;;8.27;2.20;;;;;;;18.19;100.00;101368.66;10132326;29;20049;-93
2024/04/04 20:07:42;;;;;;;10.68;2.78;;;;;;;18.21;100.00;101375.78;10171020;29;20055;-90
2024/04/04 20:13:04;;;;;;;9.95;2.38;;;;;;;18.15;100.00;101381.16;10170130;29;20052;-90
2024/04/04 20:18:29;;;;;;;8.32;2.80;;;;;;;18.07;100.00;101385.66;10192469;29;20069;-86
2024/04/04 20:23:52;;;;;;;9.65;2.45;;;;;;;17.97;100.00;101388.41;10182921;29;20110;-85
2024/04/04 20:29:15;;;;;;;13.95;2.63;;;;;;;17.87;100.00;101376.84;10185417;29;20508;-84
2024/04/04 20:34:41;;;;;;;11.25;2.65;;;;;;;17.93;100.00;101379.50;10203192;29;20059;-87
2024/04/04 20:40:05;;;;;;;12.50;2.50;;;;;;;17.92;100.00;101381.28;10216965;29;20058;-89
2024/04/04 20:45:28;;;;;;;9.35;2.13;;;;;;;17.82;100.00;101389.34;10182020;29;20068;-92
2024/04/04 20:50:56;;;;;;;11.55;2.50;;;;;;;17.83;100.00;101397.38;10162896;29;20076;-92
2024/04/04 20:56:18;;;;;;;10.85;2.42;;;;;;;17.61;100.00;101400.09;10169950;29;20060;-88
2024/04/04 21:01:42;;;;;;;10.35;2.30;;;;;;;17.37;100.00;101403.69;10139652;29;20052;-88
2024/04/04 21:07:07;;;;;;;14.68;2.75;;;;;;;17.24;100.00;101409.94;10114598;29;20080;-89
2024/04/04 21:12:34;;;;;;;14.98;2.97;;;;;;;17.27;100.00;101410.81;10110270;29;20144;-88
2024/04/04 21:17:58;;;;;;;6.07;2.03;;;;;;;17.34;100.00;101404.56;10148927;29;20059;-87
2024/04/04 21:23:24;;;;;;;11.63;2.97;;;;;;;17.26;100.00;101394.81;10161927;29;20505;-88
2024/04/04 21:28:49;;;;;;;13.90;3.78;;;;;;;17.13;100.00;101397.47;10148951;29;20111;-88
2024/04/04 21:34:14;;;;;;;10.18;3.00;;;;;;;17.08;100.00;101399.28;10174370;29;20068;-89
2024/04/04 21:39:46;;;;;;;12.75;3.20;;;;;;;17.16;100.00;101387.72;10174536;29;20056;-89
2024/04/04 21:45:08;;;;;;;10.63;2.65;;;;;;;17.11;100.00;101398.41;10174556;29;20194;-89
2024/04/04 21:50:33;;;;;;;13.75;2.97;;;;;;;16.89;100.00;101389.50;10174098;29;20052;-88
2024/04/04 21:56:00;;;;;;;9.65;2.15;;;;;;;16.87;100.00;101390.41;10159892;29;20052;-89
2024/04/04 22:01:22;;;;;;;12.60;2.90;;;;;;;16.95;100.00;101396.63;10173288;29;20111;-89
2024/04/04 22:06:47;;;;;;;13.30;2.90;;;;;;;16.97;100.00;101385.06;10147382;29;20462;-87
2024/04/04 22:12:15;;;;;;;16.00;3.03;;;;;;;16.96;100.00;101393.94;10159621;29;20064;-87
2024/04/04 22:17:37;;;;;;;12.23;3.22;;;;;;;16.94;100.00;101394.84;10146463;29;20044;-88
2024/04/04 22:23:00;;;;;;;17.17;2.42;;;;;;;16.83;100.00;101385.94;10146194;29;20465;-89
2024/04/04 22:28:25;;;;;;;9.10;2.35;;;;;;;16.82;100.00;101385.06;10146403;29;20059;-89
2024/04/04 22:33:52;;;;;;;16.73;2.45;;;;;;;16.76;100.00;101385.06;10158532;29;20468;-90
2024/04/04 22:39:16;;;;;;;9.38;2.42;;;;;;;16.67;100.00;101379.75;10145725;29;20123;-90
2024/04/04 22:44:40;;;;;;;9.90;2.75;;;;;;;16.73;100.00;101383.31;10157470;29;20052;-88
2024/04/04 22:50:06;;;;;;;10.65;2.88;;;;;;;16.82;100.00;101379.72;10171938;29;20067;-88
2024/04/04 22:55:29;;;;;;;14.60;3.35;;;;;;;16.89;100.00;101377.94;10144781;29;20052;-89
2024/04/04 23:00:53;;;;;;;12.93;2.20;;;;;;;16.86;100.00;101383.31;10157976;29;20060;-88
2024/04/04 23:06:16;;;;;;;11.25;2.22;;;;;;;16.86;100.00;101381.53;10145139;29;20060;-87
2024/04/04 23:11:54;;;;;;;8.35;2.45;;;;;;;17.00;100.00;101374.38;10144663;29;20060;-88
2024/04/04 23:17:19;;;;;;;14.30;2.42;;;;;;;17.12;100.00;101370.84;10158130;29;20096;-88
2024/04/04 23:22:42;;;;;;;11.88;2.55;;;;;;;17.12;100.00;101370.84;10144118;29;20170;-88
2024/04/04 23:28:05;;;;;;;10.98;2.38;;;;;;;17.02;100.00;101367.28;10144135;29;20095;-87
2024/04/04 23:33:29;;;;;;;9.15;2.20;;;;;;;17.01;100.00;101364.59;10156894;29;20056;-88
2024/04/04 23:38:52;;;;;;;13.18;2.83;;;;;;;16.98;100.00;101368.19;10156630;29;20056;-87
2024/04/04 23:44:16;;;;;;;16.92;3.55;;;;;;;16.94;100.00;101374.38;10156711;29;20060;-88
2024/04/04 23:49:40;;;;;;;14.95;3.13;;;;;;;16.73;100.00;101369.06;10143748;29;20067;-86
2024/04/04 23:55:03;;;;;;;13.20;2.70;;;;;;;16.58;100.00;101366.34;10142672;29;20108;-87
